Time;durP1;ratioP1;P1;durP2;ratioP2;P2;SDS_P1;SDS_P2;PMS_P1;PMS_P2;Temp;Humidity;BMP_temperature;BMP_pressure;BME280_temperature;BME280_humidity;BME280_pressure;Samples;Min_cycle;Max_cycle;Signal;HPM_P1;HPM_P2
2022/12/10 00:04:57;;;;;;;18.10;12.23;;;;;;;1.14;79.50;99796.44;4957276;29;20081;-84
2022/12/10 00:08:00;;;;;;;15.48;12.60;;;;;;;1.33;78.84;99779.63;4956957;29;20043;-83
2022/12/10 00:11:09;;;;;;;22.67;14.65;;;;;;;1.07;80.12;99800.91;4956120;29;20055;-85
2022/12/10 00:14:24;;;;;;;31.10;18.17;;;;;;;1.15;79.97;99803.28;4957140;29;20070;-81
2022/12/10 00:17:28;;;;;;;18.98;12.57;;;;;;;1.15;79.74;99798.16;4956793;29;20046;-82
2022/12/10 00:20:31;;;;;;;16.17;11.23;;;;;;;1.25;79.31;99799.59;4956772;29;20050;-82
2022/12/10 00:23:35;;;;;;;26.58;15.90;;;;;;;1.32;79.17;99805.44;4956764;29;20520;-84
2022/12/10 00:26:42;;;;;;;26.83;15.77;;;;;;;1.22;80.13;99803.97;4956660;29;20110;-84
2022/12/10 00:29:45;;;;;;;23.15;14.55;;;;;;;1.36;79.89;99802.72;4956558;29;20046;-84
2022/12/10 00:32:48;;;;;;;;;;;;;;;1.35;80.42;99802.78;4957046;29;20531;-84
2022/12/10 00:35:52;;;;;;;24.77;15.85;;;;;;;1.34;80.07;99801.94;4955080;28;19966;-84
2022/12/10 00:38:57;;;;;;;18.58;12.93;;;;;;;1.33;79.91;99802.81;4956544;29;20118;-81
2022/12/10 00:42:00;;;;;;;19.60;14.07;;;;;;;1.40;79.96;99798.34;4956433;29;20086;-81
2022/12/10 00:45:07;;;;;;;19.90;13.18;;;;;;;1.42;79.77;99796.56;4956312;29;20094;-84
2022/12/10 00:48:13;;;;;;;18.85;12.85;;;;;;;1.64;79.44;99802.00;4955274;29;20448;-84
2022/12/10 00:51:19;;;;;;;18.08;11.52;;;;;;;1.41;79.90;99800.03;4956286;29;20117;-84
2022/12/10 00:54:23;;;;;;;15.48;11.93;;;;;;;1.59;80.21;99799.53;4955358;29;20101;-84
2022/12/10 00:57:26;;;;;;;15.00;12.07;;;;;;;1.48;80.41;99796.41;4955449;29;20114;-84
2022/12/10 01:00:36;;;;;;;16.92;12.10;;;;;;;1.47;79.56;99799.88;4956235;29;20054;-84
2022/12/10 01:03:40;;;;;;;17.88;12.80;;;;;;;1.30;80.73;99804.63;4955136;29;20073;-84
2022/12/10 01:06:53;;;;;;;14.60;11.60;;;;;;;1.30;80.44;99807.19;4956045;29;20185;-84
2022/12/10 01:09:56;;;;;;;16.15;12.73;;;;;;;1.22;81.64;99809.13;4955807;29;20050;-84
2022/12/10 01:12:59;;;;;;;17.38;11.75;;;;;;;1.34;81.37;99804.50;4955677;29;20097;-84
2022/12/10 01:16:05;;;;;;;13.68;10.48;;;;;;;1.55;80.54;99807.41;4933085;29;20094;-83
2022/12/10 01:19:09;;;;;;;13.52;11.02;;;;;;;1.58;79.56;99815.88;4956009;29;20146;-83
2022/12/10 01:22:12;;;;;;;15.32;11.65;;;;;;;1.68;79.30;99821.63;4955707;29;20097;-83
2022/12/10 01:25:17;;;;;;;13.88;9.57;;;;;;;1.52;76.30;99826.34;4955469;29;20062;-83
2022/12/10 01:28:24;;;;;;;15.63;9.43;;;;;;;1.50;77.31;99825.56;4955625;29;20046;-83
2022/12/10 01:31:34;;;;;;;13.32;9.95;;;;;;;1.58;75.25;99828.75;4955543;29;20093;-82
2022/12/10 01:34:37;;;;;;;11.00;9.38;;;;;;;1.74;74.49;99830.94;4955516;29;20134;-83
2022/12/10 01:37:41;;;;;;;13.52;9.65;;;;;;;1.62;76.50;99840.69;4954591;29;20186;-82
2022/12/10 01:40:44;;;;;;;12.30;9.82;;;;;;;1.56;79.01;99840.00;4954512;29;20067;-82
2022/12/10 01:44:10;;;;;;;11.82;9.88;;;;;;;1.54;78.76;99841.78;4943687;29;20114;-83
2022/12/10 01:47:17;;;;;;;12.95;9.95;;;;;;;1.56;79.31;99845.16;4941027;28;20078;-83
2022/12/10 01:50:21;;;;;;;13.43;9.80;;;;;;;1.51;79.38;99847.03;4954373;29;20078;-84
2022/12/10 01:53:24;;;;;;;13.48;10.60;;;;;;;1.60;76.61;99847.63;4954565;29;20138;-84
2022/12/10 01:56:28;;;;;;;10.55;8.60;;;;;;;1.74;74.87;99846.41;4935089;29;20054;-84
2022/12/10 01:59:33;;;;;;;10.88;9.02;;;;;;;1.90;75.04;99850.25;4935867;29;20055;-84
2022/12/10 02:02:47;;;;;;;10.93;8.82;;;;;;;1.85;75.91;99850.38;4935164;29;20046;-84
2022/12/10 02:06:25;;;;;;;12.45;9.70;;;;;;;1.90;76.42;99854.56;4935425;29;20050;-83
2022/12/10 02:10:06;;;;;;;11.35;9.07;;;;;;;1.59;76.58;99848.47;4935962;29;20085;-83
2022/12/10 02:13:44;;;;;;;9.23;7.53;;;;;;;1.61;73.24;99844.16;4935618;29;20102;-83
2022/12/10 02:16:56;;;;;;;10.15;7.75;;;;;;;1.49;74.77;99843.63;4935492;29;20513;-81
2022/12/10 02:20:48;;;;;;;9.68;8.57;;;;;;;1.46;75.69;99852.28;4935617;29;20107;-82
2022/12/10 02:24:05;;;;;;;10.07;8.43;;;;;;;1.37;76.61;99849.94;4934670;29;20493;-82
2022/12/10 02:27:23;;;;;;;9.10;7.93;;;;;;;1.57;74.60;99842.53;4934996;29;20051;-83
2022/12/10 02:30:32;;;;;;;9.55;6.82;;;;;;;1.61;72.17;99839.00;4923917;29;20058;-83
2022/12/10 02:33:42;;;;;;;9.30;7.90;;;;;;;1.66;72.50;99840.59;4934600;29;20082;-83
2022/12/10 02:36:50;;;;;;;8.93;7.57;;;;;;;1.79;72.82;99837.66;4934585;29;20071;-82
2022/12/10 02:39:59;;;;;;;10.05;7.88;;;;;;;1.63;74.29;99839.81;4934487;29;20129;-82
2022/12/10 02:43:06;;;;;;;8.40;7.00;;;;;;;1.58;73.62;99827.94;4934508;29;20083;-82
2022/12/10 02:46:11;;;;;;;11.27;6.95;;;;;;;1.47;73.96;99841.09;4935203;29;20075;-82
2022/12/10 02:49:17;;;;;;;10.02;6.88;;;;;;;1.55;73.86;99839.16;4934706;29;20183;-82
2022/12/10 02:52:23;;;;;;;9.00;7.55;;;;;;;1.58;74.83;99841.66;4935454;29;20099;-83
2022/12/10 02:55:47;;;;;;;8.20;7.28;;;;;;;1.52;73.22;99849.53;4934168;29;20153;-82
2022/12/10 02:59:00;;;;;;;10.45;7.70;;;;;;;1.63;72.91;99842.38;4936189;29;20050;-82
2022/12/10 03:02:26;;;;;;;9.23;7.20;;;;;;;1.45;73.49;99842.88;4938314;29;20074;-85
2022/12/10 03:05:47;;;;;;;11.45;7.97;;;;;;;1.53;73.35;99842.66;4938768;29;20075;-82
2022/12/10 03:08:59;;;;;;;8.70;6.88;;;;;;;1.38;72.47;99849.06;4938851;29;20050;-84
2022/12/10 03:12:28;;;;;;;10.68;7.43;;;;;;;1.30;73.10;99853.56;4938887;29;20110;-84
2022/12/10 03:15:37;;;;;;;14.35;7.93;;;;;;;1.11;73.06;99848.00;4938857;29;20102;-84
2022/12/10 03:18:41;;;;;;;8.73;7.40;;;;;;;0.96;73.50;99843.22;4938959;29;20524;-84
2022/12/10 03:21:49;;;;;;;8.73;6.57;;;;;;;0.84;72.94;99845.22;4937933;29;20079;-83
2022/12/10 03:24:53;;;;;;;9.43;7.75;;;;;;;0.85;73.45;99840.91;4937704;29;20094;-83
2022/12/10 03:28:00;;;;;;;8.93;7.30;;;;;;;1.00;73.42;99844.84;4938813;29;20450;-82
2022/12/10 03:31:07;;;;;;;10.15;7.50;;;;;;;1.15;72.84;99841.91;4938520;29;20058;-82
2022/12/10 03:34:11;;;;;;;9.18;6.97;;;;;;;1.21;73.49;99844.31;4938506;29;20130;-83
2022/12/10 03:37:15;;;;;;;10.25;8.27;;;;;;;1.29;74.09;99844.97;4937750;29;20111;-83
2022/12/10 03:40:22;;;;;;;10.85;8.05;;;;;;;1.26;74.57;99847.63;4938207;29;20042;-83
2022/12/10 03:43:26;;;;;;;10.80;7.95;;;;;;;1.34;75.17;99839.69;4938384;29;20530;-83
2022/12/10 03:46:31;;;;;;;8.52;7.47;;;;;;;1.25;74.40;99839.97;4937394;29;20102;-83
2022/12/10 03:49:35;;;;;;;9.68;7.20;;;;;;;1.19;75.05;99837.53;4938131;29;20111;-83
2022/12/10 03:52:38;;;;;;;10.85;8.32;;;;;;;1.07;75.38;99836.94;4938072;29;20059;-83
2022/12/10 03:55:42;;;;;;;9.20;7.22;;;;;;;1.10;75.88;99839.44;4937814;29;20070;-82
2022/12/10 03:58:46;;;;;;;9.57;7.68;;;;;;;1.10;75.11;99836.88;4938086;29;20090;-83
2022/12/10 04:01:51;;;;;;;8.68;6.75;;;;;;;1.13;75.07;99841.09;4938036;29;20152;-83
2022/12/10 04:04:55;;;;;;;9.98;7.40;;;;;;;1.22;75.57;99830.56;4937838;29;20532;-83
2022/12/10 04:07:58;;;;;;;10.65;8.00;;;;;;;1.11;75.89;99830.81;4937356;29;20178;-83
2022/12/10 04:11:04;;;;;;;10.93;6.85;;;;;;;1.07;75.85;99834.38;4937040;29;20165;-83
2022/12/10 04:17:33;;;;;;;9.77;7.82;;;;;;;1.03;75.95;99850.78;4936938;29;20043;-83
2022/12/10 04:27:46;;;;;;;10.20;8.40;;;;;;;1.19;74.56;99845.25;4937831;29;20459;-82
2022/12/10 04:30:50;;;;;;;13.15;9.18;;;;;;;0.97;74.52;99850.94;4936717;29;20051;-82
2022/12/10 04:33:55;;;;;;;12.65;8.70;;;;;;;1.07;74.12;99854.13;4937403;29;20501;-82
2022/12/10 04:37:01;;;;;;;10.27;7.72;;;;;;;1.04;74.73;99852.47;4936673;29;20517;-81
2022/12/10 04:40:06;;;;;;;10.70;7.75;;;;;;;1.01;75.03;99862.00;4936481;29;20110;-81
2022/12/10 04:43:10;;;;;;;17.02;11.13;;;;;;;1.09;75.05;99855.78;4937257;29;20099;-83
2022/12/10 04:57:49;;;;;;;10.32;6.95;;;;;;;0.79;73.93;99867.63;5931383;22;6629749;-81
2022/12/10 05:01:04;;;;;;;7.70;6.72;;;;;;;0.78;74.34;99872.81;6213442;23;20454;-81
2022/12/10 05:04:17;;;;;;;10.55;8.23;;;;;;;0.59;73.90;99870.66;6215317;23;20108;-81
2022/12/10 05:07:26;;;;;;;11.20;9.27;;;;;;;0.68;74.32;99870.44;6214589;23;20023;-81
2022/12/10 05:10:40;;;;;;;9.05;7.72;;;;;;;0.50;74.23;99870.00;6214232;23;20031;-80
2022/12/10 05:13:44;;;;;;;11.52;9.27;;;;;;;0.76;74.76;99874.56;6191557;22;20031;-80
2022/12/10 05:16:51;;;;;;;9.43;7.55;;;;;;;0.90;73.27;99872.56;6190710;23;20073;-81
2022/12/10 05:19:55;;;;;;;9.73;8.07;;;;;;;0.93;73.35;99881.03;6209330;23;20069;-81
2022/12/10 05:26:23;;;;;;;9.90;7.82;;;;;;;0.60;74.38;99877.47;6210423;23;20032;-80
2022/12/10 05:29:30;;;;;;;10.80;8.25;;;;;;;0.56;74.45;99881.00;6209350;23;20077;-80
2022/12/10 05:32:44;;;;;;;10.43;8.40;;;;;;;0.73;73.68;99882.38;6211097;23;20070;-81
2022/12/10 05:36:19;;;;;;;10.32;8.18;;;;;;;0.90;73.03;99881.13;6210164;23;20023;-81
2022/12/10 05:39:25;;;;;;;;;;;;;;;0.90;72.76;99881.13;6211063;23;20357;-81
2022/12/10 05:42:34;;;;;;;10.13;7.85;;;;;;;1.00;72.26;99888.63;6210167;23;20179;-81
2022/12/10 05:45:47;;;;;;;10.00;8.20;;;;;;;1.09;72.37;99889.25;6209886;23;20474;-81
2022/12/10 05:48:55;;;;;;;11.20;9.27;;;;;;;0.72;73.13;99885.81;6178875;23;20031;-80
2022/12/10 05:52:14;;;;;;;10.27;8.48;;;;;;;0.15;74.76;99895.56;6180697;23;20031;-81
2022/12/10 05:55:28;;;;;;;13.23;9.00;;;;;;;0.34;75.00;99895.19;6180298;23;20097;-81
2022/12/10 05:58:33;;;;;;;10.02;8.57;;;;;;;0.53;75.49;99896.50;6174025;23;20086;-81
2022/12/10 06:01:39;;;;;;;11.05;8.18;;;;;;;0.18;75.76;99895.50;6155077;23;20028;-80
2022/12/10 06:04:55;;;;;;;11.23;8.02;;;;;;;-0.02;76.41;99897.63;6173811;23;20069;-81
2022/12/10 06:08:02;;;;;;;10.32;7.95;;;;;;;0.20;76.17;99900.63;6156550;22;20108;-80
2022/12/10 06:11:10;;;;;;;10.50;8.38;;;;;;;0.14;75.67;99904.16;6172735;23;20364;-80
2022/12/10 06:14:29;;;;;;;11.02;9.27;;;;;;;0.33;75.25;99898.66;6173127;23;20835;-80
2022/12/10 06:17:43;;;;;;;11.38;8.80;;;;;;;0.27;75.36;99909.06;6172406;23;20019;-80
2022/12/10 06:20:56;;;;;;;10.13;8.13;;;;;;;0.31;76.16;99905.56;6174218;23;20077;-81
2022/12/10 06:24:17;;;;;;;15.50;10.50;;;;;;;0.18;76.08;99916.06;6157193;23;20104;-80
2022/12/10 06:27:22;;;;;;;11.38;8.60;;;;;;;0.13;76.21;99906.78;6173436;23;20564;-80
2022/12/10 06:30:38;;;;;;;12.65;9.27;;;;;;;0.15;76.31;99916.13;6155832;22;20031;-80
2022/12/10 06:33:43;;;;;;;12.63;10.07;;;;;;;0.14;76.12;99921.31;6155630;23;20100;-79
2022/12/10 06:36:59;;;;;;;13.25;9.93;;;;;;;0.43;74.97;99915.59;6173586;23;20039;-79
2022/12/10 06:40:09;;;;;;;16.00;9.65;;;;;;;0.22;75.85;99922.00;6172199;23;20485;-79
2022/12/10 06:43:13;;;;;;;14.45;10.52;;;;;;;0.26;75.83;99930.53;6173023;23;20047;-81
2022/12/10 06:46:20;;;;;;;12.25;9.13;;;;;;;0.57;74.69;99941.03;6173363;23;20047;-80
2022/12/10 06:49:24;;;;;;;12.27;9.80;;;;;;;0.31;74.64;99933.84;6156154;23;20522;-79
2022/12/10 06:52:30;;;;;;;14.75;10.20;;;;;;;0.00;76.16;99931.88;6175430;23;20150;-80
2022/12/10 06:55:39;;;;;;;10.80;9.02;;;;;;;-0.05;77.49;99943.94;6175902;23;20045;-81
2022/12/10 06:58:50;;;;;;;11.05;9.05;;;;;;;-0.31;77.65;99960.66;6177414;23;20063;-81
2022/12/10 07:01:56;;;;;;;12.77;10.23;;;;;;;-0.37;78.27;99958.19;6181517;23;20401;-81
2022/12/10 07:05:02;;;;;;;14.35;10.70;;;;;;;-0.57;78.72;99955.13;6181227;23;20073;-80
2022/12/10 07:08:06;;;;;;;13.05;10.55;;;;;;;-0.39;78.71;99964.22;6181195;23;20473;-80
2022/12/10 07:11:19;;;;;;;12.70;10.50;;;;;;;-0.56;78.77;99967.94;6163079;23;20028;-80
2022/12/10 07:14:25;;;;;;;10.25;8.57;;;;;;;-0.26;77.43;99961.41;6181029;23;20028;-81
2022/12/10 07:17:29;;;;;;;11.85;9.65;;;;;;;0.01;77.47;99964.41;6181072;23;20024;-80
2022/12/10 07:20:34;;;;;;;11.70;9.40;;;;;;;-0.42;77.81;99970.25;6181415;23;20035;-80
2022/12/10 07:23:40;;;;;;;14.00;10.13;;;;;;;-0.26;77.20;99966.56;6181629;23;20066;-80
2022/12/10 07:26:46;;;;;;;12.32;9.73;;;;;;;-0.31;77.21;99973.50;6180973;23;20028;-81
2022/12/10 07:29:50;;;;;;;50.75;33.45;;;;;;;0.12;76.51;99971.91;6181228;23;20066;-80
2022/12/10 07:32:54;;;;;;;41.55;30.55;;;;;;;0.25;76.02;99964.81;6181758;23;20028;-81
2022/12/10 07:36:02;;;;;;;23.85;19.45;;;;;;;0.50;74.30;99968.59;6181330;23;20500;-80
2022/12/10 07:39:17;;;;;;;23.88;18.58;;;;;;;0.15;75.29;99967.56;6181448;23;20052;-81
2022/12/10 07:42:26;;;;;;;31.55;26.77;;;;;;;0.31;75.66;99975.81;6163203;23;20535;-81
2022/12/10 07:45:45;;;;;;;20.88;16.77;;;;;;;0.49;74.75;99966.91;6164382;23;20024;-80
2022/12/10 07:49:08;;;;;;;14.23;12.45;;;;;;;0.26;75.16;99974.25;6178315;23;20066;-81
2022/12/10 07:52:22;;;;;;;18.25;15.15;;;;;;;0.20;75.71;99976.03;6177540;23;20085;-82
2022/12/10 07:55:32;;;;;;;13.38;11.30;;;;;;;0.30;75.57;99970.72;6177553;23;20078;-81
2022/12/10 07:58:44;;;;;;;15.73;12.95;;;;;;;0.59;74.66;99978.72;6176699;23;20078;-82
2022/12/10 08:06:13;;;;;;;10.75;9.57;;;;;;;0.61;74.55;99976.97;6179495;23;20078;-82
2022/12/10 08:09:39;;;;;;;18.25;13.30;;;;;;;0.73;74.81;99983.56;6162108;23;20139;-82
2022/12/10 08:22:46;;;;;;;11.75;9.75;;;;;;;0.54;74.86;99998.53;6180103;23;20032;-83
2022/12/10 08:25:55;;;;;;;10.35;8.82;;;;;;;0.52;74.36;99990.00;6181332;23;20085;-82
2022/12/10 08:29:01;;;;;;;12.18;10.00;;;;;;;0.40;74.68;99995.38;6181329;23;20051;-82
2022/12/10 08:32:13;;;;;;;18.20;13.13;;;;;;;0.41;74.80;99989.34;6181194;23;20028;-82
2022/12/10 08:35:18;;;;;;;12.88;9.35;;;;;;;0.51;74.86;99993.47;6163116;23;20020;-82
2022/12/10 08:38:47;;;;;;;13.40;10.23;;;;;;;0.44;75.37;100004.72;6166861;22;20074;-81
2022/12/10 08:41:54;;;;;;;12.77;9.70;;;;;;;0.32;75.29;100010.97;6180441;23;20048;-82
2022/12/10 08:45:25;;;;;;;12.88;10.45;;;;;;;0.39;75.71;100002.25;6179655;23;20114;-82
2022/12/10 08:53:40;;;;;;;11.20;8.75;;;;;;;0.62;76.17;100006.09;6175240;23;20028;-81
2022/12/10 08:56:44;;;;;;;10.48;8.75;;;;;;;0.51;76.75;100002.88;6177644;23;20350;-82
2022/12/10 09:05:25;;;;;;;15.82;7.82;;;;;;;0.53;77.21;100019.16;6162811;23;20024;-82
2022/12/10 09:08:33;;;;;;;10.48;8.43;;;;;;;0.45;77.24;100017.56;6191374;23;20078;-82
2022/12/10 09:11:59;;;;;;;10.05;8.20;;;;;;;0.61;75.77;100025.84;6174980;23;20571;-82
2022/12/10 09:15:16;;;;;;;;;;;;;;;;;;;;;
2022/12/10 09:18:25;;;;;;;11.63;9.80;;;;;;;1.19;74.16;100030.66;6160953;23;20031;-82
2022/12/10 09:21:38;;;;;;;10.98;8.50;;;;;;;1.27;73.82;100034.75;6174931;23;20082;-82
2022/12/10 09:24:54;;;;;;;11.38;9.27;;;;;;;1.02;73.91;100033.59;6175994;23;20028;-81
2022/12/10 09:33:09;;;;;;;10.82;8.88;;;;;;;0.54;72.31;100031.13;6160541;23;20078;-82
2022/12/10 09:36:18;;;;;;;10.88;7.90;;;;;;;0.64;72.99;100035.22;6177429;23;20024;-81
2022/12/10 09:39:24;;;;;;;15.23;8.90;;;;;;;0.63;73.73;100039.50;6177514;23;20028;-81
2022/12/10 09:42:57;;;;;;;10.73;8.73;;;;;;;0.78;73.26;100037.53;6177931;23;20074;-81
2022/12/10 09:46:58;;;;;;;18.77;12.00;;;;;;;0.83;73.25;100033.13;6178233;23;20746;-82
2022/12/10 09:50:16;;;;;;;99.22;57.67;;;;;;;0.92;72.91;100032.94;6176981;23;20024;-82
2022/12/10 09:53:40;;;;;;;20.15;14.75;;;;;;;1.11;71.83;100029.09;6177419;23;20028;-82
2022/12/10 09:56:54;;;;;;;12.75;9.75;;;;;;;1.22;71.12;100033.19;6178223;23;20460;-82
2022/12/10 10:00:28;;;;;;;12.38;9.77;;;;;;;1.23;70.15;100034.88;6178013;23;20028;-82
2022/12/10 10:03:54;;;;;;;14.38;9.82;;;;;;;0.90;71.20;100025.25;6177025;23;20024;-82
2022/12/10 10:07:05;;;;;;;18.02;10.73;;;;;;;0.80;72.08;100033.19;6176840;23;20044;-83
2022/12/10 10:10:56;;;;;;;11.93;9.10;;;;;;;0.83;72.15;100027.97;6177827;23;20048;-83
2022/12/10 10:14:35;;;;;;;12.25;9.27;;;;;;;1.23;71.61;100027.13;6180721;23;20115;-82
2022/12/10 10:17:54;;;;;;;15.38;10.02;;;;;;;1.77;70.02;100025.00;6165935;23;20458;-82
2022/12/10 10:21:07;;;;;;;14.23;10.88;;;;;;;1.23;69.63;100027.13;6181774;23;20100;-83
2022/12/10 10:24:19;;;;;;;13.23;10.32;;;;;;;1.14;69.97;100034.16;6182026;23;20028;-83
2022/12/10 10:27:33;;;;;;;15.13;11.35;;;;;;;1.10;70.55;100042.84;6164463;23;20343;-83
2022/12/10 10:30:36;;;;;;;13.18;10.02;;;;;;;1.30;70.54;100033.84;6182001;23;20024;-83
2022/12/10 10:33:56;;;;;;;14.18;10.98;;;;;;;1.29;70.20;100033.00;6181874;23;20066;-83
2022/12/10 10:37:31;;;;;;;13.93;10.45;;;;;;;1.76;69.32;100043.13;6181725;23;20105;-82
2022/12/10 10:40:40;;;;;;;15.48;10.32;;;;;;;1.61;69.20;100034.84;6181737;23;20051;-82
2022/12/10 10:43:47;;;;;;;14.90;10.90;;;;;;;1.34;69.25;100038.03;6156918;23;20515;-82
2022/12/10 10:46:55;;;;;;;14.35;10.98;;;;;;;1.58;69.05;100040.06;6177641;23;20024;-82
2022/12/10 10:50:28;;;;;;;14.35;11.10;;;;;;;1.84;69.30;100036.03;6158401;23;20067;-83
2022/12/10 10:53:43;;;;;;;16.40;11.32;;;;;;;1.61;70.29;100039.16;6175710;23;20082;-82
2022/12/10 10:56:48;;;;;;;32.85;20.23;;;;;;;1.50;68.88;100042.00;6156768;22;20073;-82
2022/12/10 10:59:56;;;;;;;15.07;11.48;;;;;;;1.45;69.22;100038.66;6175480;23;20073;-83
2022/12/10 11:03:09;;;;;;;15.30;11.23;;;;;;;1.57;69.74;100027.22;6174684;23;20647;-83
2022/12/10 11:06:22;;;;;;;21.88;11.65;;;;;;;1.66;70.40;100028.72;6175128;23;20028;-83
2022/12/10 11:09:36;;;;;;;17.25;11.45;;;;;;;1.57;70.07;100032.38;6176168;23;20028;-86
2022/12/10 11:12:40;;;;;;;15.07;10.80;;;;;;;1.55;72.64;100023.84;6178160;23;20036;-88
2022/12/10 11:15:45;;;;;;;12.75;9.85;;;;;;;1.67;71.25;100033.03;6177670;23;20042;-89
2022/12/10 11:19:02;;;;;;;15.73;12.18;;;;;;;1.32;73.15;100037.25;6160630;23;20082;-89
2022/12/10 11:22:40;;;;;;;14.32;11.68;;;;;;;1.48;71.13;100038.59;6176949;23;20051;-84
2022/12/10 11:26:02;;;;;;;14.48;11.60;;;;;;;1.49;70.56;100040.28;6176421;23;20364;-83
2022/12/10 11:29:21;;;;;;;17.15;12.40;;;;;;;1.75;70.60;100043.97;6175759;23;20028;-84
2022/12/10 11:32:59;;;;;;;14.48;11.48;;;;;;;1.75;69.40;100039.66;6157973;23;20096;-83
2022/12/10 11:36:35;;;;;;;16.83;12.18;;;;;;;1.45;69.08;100028.34;6157284;23;20459;-83
2022/12/10 11:39:52;;;;;;;13.80;10.80;;;;;;;1.46;69.48;100034.34;6157130;23;20347;-84
2022/12/10 11:43:13;;;;;;;16.25;11.38;;;;;;;1.41;70.29;100038.78;6174885;23;20024;-83
2022/12/10 11:46:44;;;;;;;14.70;10.77;;;;;;;1.52;71.27;100040.22;6175742;23;20049;-82
2022/12/10 11:50:28;;;;;;;16.55;11.38;;;;;;;1.25;70.58;100035.69;6175662;23;20051;-83
2022/12/10 11:54:03;;;;;;;14.13;10.45;;;;;;;1.05;70.86;100034.38;6176289;23;20020;-82
2022/12/10 11:57:50;;;;;;;13.77;10.50;;;;;;;1.64;70.62;100033.94;6175952;23;20066;-82
2022/12/10 12:01:40;;;;;;;17.40;11.60;;;;;;;1.55;70.25;100041.88;6193194;23;20028;-83
2022/12/10 12:05:32;;;;;;;18.02;13.00;;;;;;;1.31;70.53;100035.56;6175098;23;20070;-82
2022/12/10 12:09:02;;;;;;;17.13;12.80;;;;;;;1.60;69.51;100038.31;6157042;22;20031;-82
2022/12/10 12:13:02;;;;;;;17.15;12.65;;;;;;;1.38;70.32;100037.09;6176121;23;20027;-82
2022/12/10 12:16:37;;;;;;;18.15;12.38;;;;;;;1.19;70.74;100046.97;6184288;23;20070;-82
2022/12/10 12:19:51;;;;;;;19.77;12.70;;;;;;;1.50;69.98;100044.56;6175597;23;20517;-82
2022/12/10 12:23:11;;;;;;;15.45;11.98;;;;;;;1.73;70.02;100044.03;6175544;23;20407;-81
2022/12/10 12:26:43;;;;;;;21.90;14.80;;;;;;;1.94;68.98;100050.38;6174523;23;20043;-81
2022/12/10 12:30:16;;;;;;;19.17;12.95;;;;;;;1.35;69.23;100057.78;6158832;23;20362;-81
2022/12/10 12:33:50;;;;;;;18.83;12.52;;;;;;;1.29;70.70;100057.91;6175766;22;20082;-82
2022/12/10 12:37:12;;;;;;;16.73;12.10;;;;;;;1.25;70.33;100056.28;6154212;22;20066;-79
2022/12/10 12:40:34;;;;;;;14.27;11.48;;;;;;;1.45;69.96;100054.13;6176016;23;20031;-80
2022/12/10 12:44:03;;;;;;;18.83;12.98;;;;;;;1.55;70.36;100050.44;6174919;23;20032;-80
2022/12/10 12:47:29;;;;;;;15.70;12.13;;;;;;;1.53;69.64;100057.38;6175485;23;20506;-81
2022/12/10 12:50:48;;;;;;;18.23;13.07;;;;;;;1.19;71.33;100066.72;6174809;23;20027;-81
2022/12/10 12:53:52;;;;;;;17.45;13.20;;;;;;;1.28;71.01;100067.38;6175667;23;20060;-81
2022/12/10 12:57:22;;;;;;;18.33;13.40;;;;;;;1.41;71.08;100067.97;6175216;23;20032;-81
2022/12/10 13:00:35;;;;;;;19.63;14.27;;;;;;;1.39;70.58;100069.69;6174226;23;20139;-81
2022/12/10 13:03:42;;;;;;;16.00;12.45;;;;;;;0.88;71.40;100073.34;6174464;23;20028;-81
2022/12/10 13:07:13;;;;;;;15.90;12.23;;;;;;;1.14;71.07;100072.78;6174846;23;20027;-81
2022/12/10 13:10:25;;;;;;;17.00;12.32;;;;;;;0.92;71.68;100076.69;6176001;23;20055;-81
2022/12/10 13:13:36;;;;;;;15.43;11.75;;;;;;;1.02;71.44;100073.06;6154986;23;20070;-81
2022/12/10 13:16:49;;;;;;;16.60;13.02;;;;;;;0.83;71.23;100088.03;6156914;23;20352;-81
2022/12/10 13:19:54;;;;;;;19.55;16.42;;;;;;;0.77;72.19;100084.75;6175528;23;20455;-81
2022/12/10 13:23:25;;;;;;;15.60;11.77;;;;;;;0.74;71.65;100079.66;6175869;23;20027;-81
2022/12/10 13:26:30;;;;;;;14.93;12.07;;;;;;;0.78;71.29;100082.13;6175687;23;20452;-81
2022/12/10 13:29:57;;;;;;;15.75;11.65;;;;;;;1.07;70.95;100089.25;6158569;22;20466;-81
2022/12/10 13:33:16;;;;;;;17.88;13.75;;;;;;;1.15;70.87;100089.97;6157201;23;20032;-81
2022/12/10 13:36:40;;;;;;;17.30;13.20;;;;;;;0.77;71.61;100100.19;6158782;23;20032;-81
2022/12/10 13:55:45;;;;;;;19.50;14.20;;;;;;;0.81;72.18;100119.81;6304600;22;20015;-81
2022/12/10 13:59:03;;;;;;;19.67;14.23;;;;;;;0.87;71.79;100122.28;6178148;23;20028;-80
2022/12/10 14:06:31;;;;;;;18.88;13.40;;;;;;;0.80;71.30;100125.81;6198689;22;20035;-79
2022/12/10 14:10:14;;;;;;;18.20;13.63;;;;;;;0.83;72.52;100120.63;6181028;23;20026;-80
2022/12/10 14:13:36;;;;;;;19.42;14.38;;;;;;;0.82;74.43;100140.38;6173112;23;20382;-81
2022/12/10 14:17:41;;;;;;;19.38;14.93;;;;;;;0.82;74.16;100140.38;6180892;23;20040;-82
2022/12/10 14:20:51;;;;;;;129.10;54.58;;;;;;;0.60;73.75;100149.34;6242219;23;20494;-82
2022/12/10 14:24:26;;;;;;;35.42;27.52;;;;;;;0.64;72.96;100145.88;6238007;23;20342;-80
2022/12/10 14:27:39;;;;;;;19.65;15.25;;;;;;;0.54;72.61;100147.72;6180346;23;20154;-80
2022/12/10 14:30:48;;;;;;;19.67;13.70;;;;;;;0.51;71.97;100146.94;6162572;23;20044;-82
2022/12/10 14:33:55;;;;;;;20.25;16.00;;;;;;;0.44;72.52;100149.59;6180891;23;20397;-82
2022/12/10 14:37:15;;;;;;;26.30;20.65;;;;;;;0.31;72.48;100152.41;6166571;22;20394;-82
2022/12/10 14:40:24;;;;;;;16.88;13.20;;;;;;;0.62;71.90;100157.91;6180987;23;20054;-82
2022/12/10 14:43:54;;;;;;;15.93;12.55;;;;;;;1.02;70.94;100157.16;6181353;23;20028;-83
2022/12/10 14:47:14;;;;;;;16.80;13.13;;;;;;;0.82;71.04;100154.97;6180790;23;20023;-82
2022/12/10 14:50:19;;;;;;;20.73;16.17;;;;;;;0.65;70.97;100157.84;6162998;22;20036;-83
2022/12/10 14:53:28;;;;;;;21.17;16.33;;;;;;;0.85;71.13;100155.75;6180603;23;20029;-84
2022/12/10 15:01:34;;;;;;;19.38;14.68;;;;;;;1.38;68.51;100156.44;6175122;23;20104;-83
2022/12/10 15:05:32;;;;;;;20.65;14.70;;;;;;;1.29;68.90;100155.78;6175418;23;20028;-83
2022/12/10 15:13:41;;;;;;;20.85;13.15;;;;;;;1.15;69.66;100166.38;6180020;23;20024;-81
2022/12/10 15:16:59;;;;;;;28.50;18.13;;;;;;;1.22;70.34;100164.53;6162031;23;20090;-81
2022/12/10 15:20:30;;;;;;;21.20;14.88;;;;;;;1.39;69.50;100157.28;6180514;23;20028;-82
2022/12/10 15:28:40;;;;;;;18.65;13.45;;;;;;;1.26;69.01;100156.69;6178949;23;20448;-82
2022/12/10 15:32:14;;;;;;;20.73;16.42;;;;;;;1.02;70.01;100160.63;6179360;23;20032;-83
2022/12/10 15:35:26;;;;;;;19.40;15.23;;;;;;;0.78;71.06;100168.78;6180261;23;20020;-82
2022/12/10 15:38:34;;;;;;;18.08;13.45;;;;;;;0.85;70.51;100166.06;6180148;23;20036;-81
2022/12/10 15:42:06;;;;;;;18.38;14.25;;;;;;;1.14;70.79;100168.06;6180694;23;20104;-82
2022/12/10 15:45:42;;;;;;;19.52;14.35;;;;;;;1.14;69.74;100165.50;6180636;23;20117;-82
2022/12/10 15:48:46;;;;;;;24.58;18.27;;;;;;;1.35;69.22;100160.81;6174954;23;20020;-84
2022/12/10 15:51:52;;;;;;;18.13;14.40;;;;;;;1.21;69.93;100167.97;6176132;23;20480;-83
2022/12/10 15:54:59;;;;;;;17.00;13.52;;;;;;;1.30;69.33;100167.78;6175268;23;20454;-83
2022/12/10 15:58:14;;;;;;;17.85;14.13;;;;;;;1.60;69.41;100169.75;6205325;22;20027;-80
2022/12/10 16:01:24;;;;;;;18.38;14.55;;;;;;;1.56;69.55;100178.41;6302912;22;20069;-81
2022/12/10 16:04:28;;;;;;;17.55;12.70;;;;;;;1.70;68.38;100178.13;6284169;22;20747;-75
2022/12/10 16:07:33;;;;;;;;;;;;;;;1.53;69.03;100183.63;6302089;22;20026;-81
2022/12/10 16:13:48;;;;;;;17.60;13.43;;;;;;;1.33;68.61;100178.03;6199942;23;20066;-84
2022/12/10 16:16:56;;;;;;;18.15;13.80;;;;;;;1.41;68.63;100176.16;6210364;23;20019;-84
2022/12/10 16:20:18;;;;;;;20.20;14.00;;;;;;;1.39;68.39;100177.91;6210252;23;20031;-83
2022/12/10 16:23:30;;;;;;;19.02;13.70;;;;;;;1.41;68.92;100180.47;6210058;23;20024;-84
2022/12/10 16:26:37;;;;;;;19.45;15.35;;;;;;;1.41;68.71;100186.47;6192041;23;20058;-83
2022/12/10 16:29:51;;;;;;;21.83;15.73;;;;;;;1.47;68.54;100186.34;6208606;23;20088;-83
2022/12/10 16:32:57;;;;;;;21.90;16.45;;;;;;;1.34;69.81;100190.88;6209387;23;20023;-83
2022/12/10 16:36:02;;;;;;;20.67;15.15;;;;;;;0.89;70.27;100192.59;6209271;23;20027;-84
2022/12/10 16:39:09;;;;;;;19.42;14.60;;;;;;;0.84;71.13;100191.84;6192134;23;20089;-83
2022/12/10 16:42:25;;;;;;;20.27;16.23;;;;;;;1.14;70.29;100188.69;6192036;23;20085;-84